Time;durP1;ratioP1;P1;durP2;ratioP2;P2;SDS_P1;SDS_P2;PMS_P1;PMS_P2;Temp;Humidity;BMP_temperature;BMP_pressure;BME280_temperature;BME280_humidity;BME280_pressure;Samples;Min_cycle;Max_cycle;Signal;HPM_P1;HPM_P2
2023/03/13 00:00:37;;;;;;;0.00;0.00;;;;;;;9.10;100.00;99694.03;10544436;28;20081;-80
2023/03/13 00:05:39;;;;;;;0.28;0.28;;;;;;;9.07;100.00;99645.22;10511293;28;20060;-79
2023/03/13 00:10:41;;;;;;;2.45;0.30;;;;;;;8.81;100.00;99596.94;10533129;28;20114;-81
2023/03/13 00:15:42;;;;;;;0.28;0.10;;;;;;;8.81;100.00;99545.59;10526794;28;20047;-80
2023/03/13 00:20:47;;;;;;;0.03;0.03;;;;;;;8.71;100.00;99501.81;10527145;28;20036;-80
2023/03/13 00:25:59;;;;;;;0.20;0.05;;;;;;;8.96;100.00;99470.41;10507101;28;20196;-80
2023/03/13 00:31:12;;;;;;;1.80;0.47;;;;;;;8.83;100.00;99439.47;10514571;28;20509;-80
2023/03/13 00:36:34;;;;;;;0.25;0.25;;;;;;;8.81;100.00;99410.34;10526522;28;20048;-80
2023/03/13 00:41:37;;;;;;;0.38;0.35;;;;;;;8.84;100.00;99384.69;10529020;28;20484;-79
2023/03/13 00:46:38;;;;;;;0.20;0.20;;;;;;;8.86;100.00;99367.59;10517578;28;20138;-79
2023/03/13 00:51:41;;;;;;;0.00;0.00;;;;;;;8.91;100.00;99352.22;10519851;28;20035;-80
2023/03/13 00:56:43;;;;;;;0.10;0.10;;;;;;;8.97;100.00;99347.13;10540416;28;20562;-79
2023/03/13 01:01:46;;;;;;;0.85;0.70;;;;;;;8.95;100.00;99348.81;10540686;28;20097;-80
2023/03/13 01:06:48;;;;;;;0.20;0.20;;;;;;;8.93;100.00;99336.81;10538775;28;20080;-79
2023/03/13 01:11:50;;;;;;;7.72;1.08;;;;;;;8.78;100.00;99324.72;10519851;28;20434;-79
2023/03/13 01:16:51;;;;;;;0.00;0.00;;;;;;;8.76;100.00;99298.16;10520659;28;20491;-79
2023/03/13 01:21:53;;;;;;;0.00;0.00;;;;;;;8.49;100.00;99210.69;10528496;28;20044;-79
2023/03/13 01:26:55;;;;;;;0.00;0.00;;;;;;;8.33;100.00;99157.50;10524962;28;20048;-79
2023/03/13 01:31:57;;;;;;;1.27;0.65;;;;;;;8.28;100.00;99107.88;10519357;28;20064;-79
2023/03/13 01:36:59;;;;;;;0.17;0.17;;;;;;;8.32;100.00;99054.03;10546538;28;20102;-80
2023/03/13 01:42:02;;;;;;;0.30;0.30;;;;;;;8.40;100.00;99021.56;10526909;28;20040;-80
2023/03/13 01:47:04;;;;;;;1.05;0.47;;;;;;;8.40;100.00;98989.91;10541975;28;20040;-79
2023/03/13 01:52:30;;;;;;;0.00;0.00;;;;;;;8.44;100.00;98948.03;10520798;28;20036;-79
2023/03/13 01:57:49;;;;;;;0.63;0.32;;;;;;;9.20;100.00;98878.78;10522174;28;20056;-79
2023/03/13 02:02:56;;;;;;;5.10;0.53;;;;;;;9.21;100.00;98883.91;10543479;28;20079;-79
2023/03/13 02:08:05;;;;;;;0.10;0.10;;;;;;;9.10;100.00;98885.66;10524505;28;20512;-79
2023/03/13 02:13:09;;;;;;;1.25;0.38;;;;;;;9.15;100.00;98877.94;10523744;28;20509;-80
2023/03/13 02:18:12;;;;;;;0.90;0.35;;;;;;;9.35;100.00;98870.19;10523772;28;20052;-80
2023/03/13 02:23:23;;;;;;;0.20;0.20;;;;;;;9.46;100.00;98863.31;10530338;28;20043;-80
2023/03/13 02:28:32;;;;;;;3.00;0.93;;;;;;;9.38;100.00;98862.47;10536788;28;20051;-80
2023/03/13 02:33:42;;;;;;;0.60;0.28;;;;;;;9.64;100.00;98846.16;10521436;28;20126;-79
2023/03/13 02:38:56;;;;;;;1.55;0.52;;;;;;;9.57;100.00;98832.44;10527115;28;20115;-79
2023/03/13 02:43:58;;;;;;;;;;;;;;;9.87;100.00;98760.28;10537712;28;20066;-79
2023/03/13 02:49:18;;;;;;;0.28;0.22;;;;;;;9.97;100.00;98783.41;10535025;28;19924;-80
2023/03/13 02:54:29;;;;;;;0.13;0.10;;;;;;;10.23;100.00;98789.25;10526716;28;20463;-80
2023/03/13 02:59:31;;;;;;;0.00;0.00;;;;;;;10.26;100.00;98759.22;10532621;28;20060;-80
2023/03/13 03:04:33;;;;;;;0.10;0.10;;;;;;;10.77;100.00;98751.06;10526870;28;20130;-80
2023/03/13 03:09:34;;;;;;;0.00;0.00;;;;;;;10.32;100.00;98776.31;10527367;28;20048;-79
2023/03/13 03:14:41;;;;;;;0.08;0.08;;;;;;;10.40;100.00;98776.28;10555164;28;20449;-80
2023/03/13 03:19:43;;;;;;;0.20;0.20;;;;;;;10.34;100.00;98782.31;10533780;28;20056;-79
2023/03/13 03:24:44;;;;;;;0.00;0.00;;;;;;;10.36;100.00;98771.97;10542209;28;20475;-79
2023/03/13 03:29:46;;;;;;;1.00;0.65;;;;;;;10.30;100.00;98749.75;10509476;28;20044;-79
2023/03/13 03:34:49;;;;;;;0.00;0.00;;;;;;;10.59;100.00;98751.25;10524762;28;20044;-80
2023/03/13 03:39:51;;;;;;;0.60;0.45;;;;;;;10.81;100.00;98745.91;10527946;28;20044;-80
2023/03/13 03:44:54;;;;;;;2.50;0.60;;;;;;;10.86;100.00;98764.72;10529190;28;20128;-81
2023/03/13 03:49:56;;;;;;;0.38;0.38;;;;;;;11.03;100.00;98752.53;10522636;28;20071;-81
2023/03/13 03:54:58;;;;;;;0.20;0.20;;;;;;;11.23;100.00;98754.03;10506586;28;20048;-80
2023/03/13 04:00:00;;;;;;;1.23;0.57;;;;;;;11.33;100.00;98637.06;10506385;28;20044;-82
2023/03/13 04:05:03;;;;;;;1.40;0.55;;;;;;;10.73;100.00;98630.06;10559971;27;20561;-80
2023/03/13 04:10:08;;;;;;;0.20;0.20;;;;;;;10.71;100.00;98640.38;10550847;28;20040;-80
2023/03/13 04:15:16;;;;;;;1.35;0.32;;;;;;;10.95;100.00;98636.66;10530214;28;20127;-81
2023/03/13 04:20:18;;;;;;;0.47;0.10;;;;;;;10.82;100.00;98642.00;10525507;28;20040;-82
2023/03/13 04:25:20;;;;;;;0.55;0.13;;;;;;;11.04;100.00;98635.72;10518147;28;20074;-83
2023/03/13 04:30:24;;;;;;;0.03;0.03;;;;;;;11.18;100.00;98621.81;10501746;28;20437;-82
2023/03/13 04:35:55;;;;;;;0.20;0.15;;;;;;;11.31;100.00;98628.50;10517486;28;20131;-83
2023/03/13 04:41:15;;;;;;;0.10;0.10;;;;;;;11.61;100.00;98626.34;10535032;28;20048;-83
2023/03/13 04:46:30;;;;;;;0.65;0.25;;;;;;;11.61;100.00;98626.34;10544975;27;20051;-83
2023/03/13 04:51:47;;;;;;;0.10;0.00;;;;;;;11.54;100.00;98635.88;10535102;28;20039;-83
2023/03/13 04:57:00;;;;;;;0.10;0.05;;;;;;;11.55;100.00;98634.19;10516523;28;20218;-83
2023/03/13 05:02:12;;;;;;;0.45;0.43;;;;;;;11.50;100.00;98631.66;10516009;28;20373;-82
2023/03/13 05:07:31;;;;;;;0.30;0.22;;;;;;;11.18;100.00;98622.66;10516358;28;20079;-82
2023/03/13 05:12:41;;;;;;;0.00;0.00;;;;;;;11.14;100.00;98424.28;10531819;28;20036;-83
2023/03/13 05:18:05;;;;;;;0.05;0.05;;;;;;;12.15;100.00;98382.06;10533246;28;20040;-83
2023/03/13 05:23:14;;;;;;;0.00;0.00;;;;;;;10.82;100.00;98472.84;10500462;28;20036;-83
2023/03/13 05:28:32;;;;;;;0.50;0.40;;;;;;;10.79;100.00;98365.56;10515763;28;20101;-82
2023/03/13 05:33:57;;;;;;;0.08;0.08;;;;;;;10.94;100.00;98343.88;10509245;28;20044;-82
2023/03/13 05:39:08;;;;;;;1.85;0.40;;;;;;;10.95;100.00;98368.75;10515140;28;20445;-83
2023/03/13 05:44:28;;;;;;;0.75;0.20;;;;;;;11.05;100.00;98374.63;10535002;28;20066;-82
2023/03/13 05:49:49;;;;;;;0.22;0.22;;;;;;;11.09;100.00;98376.25;10529288;28;20093;-82
2023/03/13 05:55:11;;;;;;;0.10;0.10;;;;;;;11.18;100.00;98371.81;10494637;28;20583;-82
2023/03/13 06:00:31;;;;;;;;;;;;;;;11.25;100.00;98381.16;10519921;28;20044;-83
2023/03/13 06:06:02;;;;;;;0.13;0.13;;;;;;;11.24;100.00;98379.44;10508761;28;19934;-82
2023/03/13 06:11:30;;;;;;;0.30;0.30;;;;;;;11.44;100.00;98386.81;10524624;28;20127;-82
2023/03/13 06:16:32;;;;;;;1.45;0.73;;;;;;;11.45;100.00;98380.78;10537392;28;20078;-83
2023/03/13 06:21:54;;;;;;;1.42;0.70;;;;;;;11.49;100.00;98395.31;10543652;28;20079;-81
2023/03/13 06:26:56;;;;;;;1.33;0.73;;;;;;;11.59;100.00;98383.97;10520143;28;20044;-82
2023/03/13 06:31:57;;;;;;;0.80;0.40;;;;;;;11.62;100.00;98380.47;10545782;28;20097;-82
2023/03/13 06:36:59;;;;;;;0.10;0.10;;;;;;;11.73;100.00;98373.38;10541038;28;20125;-82
2023/03/13 06:42:01;;;;;;;0.30;0.30;;;;;;;11.67;100.00;98373.50;10538084;28;20484;-81
2023/03/13 06:47:02;;;;;;;0.20;0.20;;;;;;;11.84;100.00;98364.59;10532797;28;20046;-82
2023/03/13 06:52:04;;;;;;;0.00;0.00;;;;;;;11.93;100.00;98343.75;10526770;28;20040;-82
2023/03/13 06:57:06;;;;;;;2.40;0.85;;;;;;;11.94;100.00;98332.56;10530688;28;20071;-82
2023/03/13 07:02:10;;;;;;;0.63;0.35;;;;;;;12.14;100.00;98315.81;10525223;28;20065;-82
2023/03/13 07:07:12;;;;;;;0.10;0.10;;;;;;;12.18;100.00;98296.78;10540715;28;20075;-82
2023/03/13 07:12:29;;;;;;;4.45;0.57;;;;;;;12.28;100.00;98276.81;10544940;28;20055;-82
2023/03/13 07:17:31;;;;;;;0.17;0.17;;;;;;;12.27;100.00;98286.25;10544097;28;20056;-83
2023/03/13 07:22:33;;;;;;;0.73;0.55;;;;;;;12.26;100.00;98274.25;10539699;28;20043;-80
2023/03/13 07:27:34;;;;;;;0.15;0.15;;;;;;;12.29;100.00;98253.53;10522960;28;20499;-83
2023/03/13 07:32:36;;;;;;;0.25;0.20;;;;;;;12.41;100.00;98254.97;10515659;28;20373;-83
2023/03/13 07:37:38;;;;;;;0.15;0.15;;;;;;;12.43;100.00;98260.09;10529894;28;20505;-82
2023/03/13 07:42:40;;;;;;;0.90;0.90;;;;;;;12.83;100.00;98254.78;10526129;28;20047;-83
2023/03/13 07:47:42;;;;;;;0.98;0.68;;;;;;;13.21;100.00;98239.16;10542095;28;20497;-82
2023/03/13 07:52:44;;;;;;;0.52;0.52;;;;;;;13.28;100.00;98245.84;10529238;28;20479;-83
2023/03/13 07:57:45;;;;;;;1.15;0.63;;;;;;;13.28;100.00;98256.19;10543578;28;20478;-83
2023/03/13 08:02:47;;;;;;;0.13;0.10;;;;;;;13.26;100.00;98265.72;10546112;28;20100;-83
2023/03/13 08:07:49;;;;;;;0.13;0.10;;;;;;;13.33;100.00;98267.25;10529919;28;20039;-82
2023/03/13 08:12:50;;;;;;;0.00;0.00;;;;;;;13.52;100.00;98292.59;10522471;28;20040;-82
2023/03/13 08:17:52;;;;;;;0.05;0.05;;;;;;;13.64;100.00;98336.25;10528644;28;20672;-82
2023/03/13 08:22:54;;;;;;;0.20;0.10;;;;;;;13.72;100.00;98397.28;10519925;28;20495;-82
2023/03/13 08:27:56;;;;;;;0.45;0.45;;;;;;;13.61;100.00;98501.91;10546288;28;20097;-81
2023/03/13 08:32:58;;;;;;;0.47;0.47;;;;;;;13.45;100.00;98628.19;10539317;28;20490;-80
2023/03/13 08:38:00;;;;;;;1.27;1.08;;;;;;;13.64;100.00;98724.34;10526081;28;20044;-81
2023/03/13 08:43:01;;;;;;;3.45;1.40;;;;;;;14.25;100.00;98837.78;10530048;28;20044;-81
2023/03/13 08:48:03;;;;;;;1.23;0.68;;;;;;;13.75;100.00;98906.97;10518967;28;20048;-81
2023/03/13 08:53:05;;;;;;;0.00;0.00;;;;;;;13.72;100.00;98949.31;10527108;28;20193;-80
2023/03/13 08:58:09;;;;;;;0.00;0.00;;;;;;;13.90;100.00;98950.69;10534847;28;20052;-80
2023/03/13 09:03:11;;;;;;;0.00;0.00;;;;;;;13.93;100.00;98958.41;10528645;28;20035;-79
2023/03/13 09:08:14;;;;;;;0.10;0.10;;;;;;;13.92;100.00;98972.22;10543042;28;20510;-81
2023/03/13 09:13:16;;;;;;;1.45;0.50;;;;;;;13.79;100.00;98961.25;10544164;28;20036;-80
2023/03/13 09:18:17;;;;;;;0.00;0.00;;;;;;;14.06;100.00;98979.75;10519441;28;20320;-80
2023/03/13 09:23:20;;;;;;;0.90;0.55;;;;;;;14.35;100.00;98990.41;10521174;28;20036;-80
2023/03/13 09:28:23;;;;;;;0.00;0.00;;;;;;;14.95;100.00;98994.34;10520148;28;20048;-80
2023/03/13 09:33:25;;;;;;;0.25;0.17;;;;;;;14.39;100.00;99049.06;10542805;28;20040;-80
2023/03/13 09:38:29;;;;;;;0.95;0.15;;;;;;;14.43;100.00;99024.78;10517686;28;20036;-80
2023/03/13 09:44:09;;;;;;;0.00;0.00;;;;;;;14.52;100.00;99060.88;10511376;28;20044;-80
2023/03/13 09:49:22;;;;;;;0.40;0.20;;;;;;;15.10;100.00;99057.97;10499800;28;20101;-80
2023/03/13 09:54:30;;;;;;;0.13;0.10;;;;;;;14.93;100.00;99075.66;10510127;28;20131;-81
2023/03/13 09:59:51;;;;;;;0.10;0.10;;;;;;;15.32;100.00;99111.97;10505577;28;20048;-79
2023/03/13 10:05:07;;;;;;;0.22;0.22;;;;;;;15.68;100.00;99114.59;10560915;28;20050;-80
2023/03/13 10:10:16;;;;;;;0.45;0.10;;;;;;;14.91;100.00;99114.56;10529125;28;20100;-79
2023/03/13 10:15:43;;;;;;;;;;;;;;;14.90;100.00;99103.34;10510483;28;20036;-80
2023/03/13 10:20:50;;;;;;;0.00;0.00;;;;;;;14.88;100.00;99099.91;10571284;27;19924;-80
2023/03/13 10:25:51;;;;;;;0.00;0.00;;;;;;;14.97;100.00;99108.41;10553312;28;20035;-79
2023/03/13 10:31:05;;;;;;;0.00;0.00;;;;;;;15.09;100.00;99102.09;10536452;28;20040;-80
2023/03/13 10:36:12;;;;;;;0.22;0.13;;;;;;;15.16;100.00;99120.06;10532526;28;20043;-79
2023/03/13 10:41:37;;;;;;;0.00;0.00;;;;;;;15.33;100.00;99106.75;10532552;28;20119;-79
2023/03/13 10:46:41;;;;;;;0.47;0.38;;;;;;;15.28;100.00;99134.53;10547355;28;20138;-79
2023/03/13 10:51:50;;;;;;;0.03;0.03;;;;;;;15.50;100.00;99137.50;10538844;28;20048;-83
2023/03/13 10:57:08;;;;;;;0.90;0.22;;;;;;;15.89;100.00;99159.16;10530271;28;20043;-82
2023/03/13 11:02:32;;;;;;;0.05;0.05;;;;;;;16.36;100.00;99166.66;10529945;28;20040;-81
2023/03/13 11:07:37;;;;;;;0.50;0.30;;;;;;;15.65;100.00;99184.78;10529955;28;20102;-82
2023/03/13 11:12:47;;;;;;;0.00;0.00;;;;;;;15.82;100.00;99176.59;10542800;28;20483;-82
2023/03/13 11:18:02;;;;;;;0.00;0.00;;;;;;;15.97;100.00;99191.00;10551824;28;20437;-81
2023/03/13 11:23:18;;;;;;;0.20;0.20;;;;;;;15.92;100.00;99167.72;10601092;27;20423;-80
2023/03/13 11:28:44;;;;;;;0.30;0.30;;;;;;;15.79;100.00;99161.94;10527143;28;20044;-81
2023/03/13 11:34:07;;;;;;;0.00;0.00;;;;;;;16.33;100.00;99152.00;10552905;28;20491;-81
2023/03/13 11:39:46;;;;;;;0.85;0.70;;;;;;;16.62;100.00;99165.97;10561638;28;20052;-81
2023/03/13 11:45:02;;;;;;;0.10;0.10;;;;;;;16.56;100.00;99133.19;10518547;28;20150;-82
2023/03/13 11:50:24;;;;;;;0.00;0.00;;;;;;;16.62;100.00;99155.56;10534779;28;20067;-81
2023/03/13 11:55:48;;;;;;;0.00;0.00;;;;;;;16.52;100.00;99154.09;10512112;28;20476;-82
2023/03/13 12:00:56;;;;;;;0.00;0.00;;;;;;;16.40;100.00;99132.75;10522831;28;20048;-82
2023/03/13 12:06:01;;;;;;;0.00;0.00;;;;;;;16.18;100.00;99128.13;10541615;28;20411;-82
2023/03/13 12:11:20;;;;;;;0.00;0.00;;;;;;;16.76;100.00;99130.03;10549214;28;20513;-83
2023/03/13 12:16:40;;;;;;;0.28;0.10;;;;;;;16.53;100.00;99153.22;10530156;28;20040;-84
2023/03/13 12:21:51;;;;;;;0.00;0.00;;;;;;;16.69;100.00;99153.66;10516328;28;20055;-80
2023/03/13 12:27:02;;;;;;;0.08;0.08;;;;;;;16.43;100.00;99117.06;10525759;28;20560;-80
2023/03/13 12:32:35;;;;;;;0.15;0.10;;;;;;;16.52;100.00;99121.19;10547205;28;20044;-80
2023/03/13 12:37:51;;;;;;;0.22;0.20;;;;;;;16.94;100.00;99148.66;10536288;28;20046;-79
2023/03/13 12:43:17;;;;;;;0.00;0.00;;;;;;;16.48;100.00;99159.41;10542141;28;20039;-79
2023/03/13 12:48:41;;;;;;;0.17;0.00;;;;;;;16.65;100.00;99158.06;10545822;28;20106;-81
2023/03/13 12:53:58;;;;;;;0.60;0.40;;;;;;;17.79;100.00;99179.13;10509023;28;20052;-81
2023/03/13 12:59:32;;;;;;;0.00;0.00;;;;;;;17.51;100.00;99177.38;10518641;28;20052;-82
2023/03/13 13:04:43;;;;;;;0.00;0.00;;;;;;;17.79;100.00;99173.91;10545726;28;20047;-82
2023/03/13 13:10:17;;;;;;;0.30;0.00;;;;;;;17.28;100.00;99156.31;10547294;28;20048;-78
2023/03/13 13:15:25;;;;;;;0.10;0.00;;;;;;;17.66;100.00;99158.66;10537666;28;20047;-81
2023/03/13 13:20:35;;;;;;;0.60;0.08;;;;;;;17.37;100.00;99167.34;10525064;28;20062;-81
2023/03/13 13:25:37;;;;;;;0.10;0.10;;;;;;;17.61;100.00;99178.78;10542650;28;20032;-79
2023/03/13 13:30:38;;;;;;;0.10;0.10;;;;;;;17.62;100.00;99146.63;10526596;28;20074;-79
2023/03/13 13:35:40;;;;;;;0.00;0.00;;;;;;;17.65;100.00;99164.78;10546439;28;20525;-80
2023/03/13 13:41:02;;;;;;;0.15;0.15;;;;;;;17.01;100.00;99129.38;10543615;28;20097;-80
2023/03/13 13:46:22;;;;;;;1.02;0.35;;;;;;;17.88;100.00;99124.97;10532619;28;20044;-79
2023/03/13 13:51:24;;;;;;;;;;;;;;;17.55;100.00;99125.16;10542005;28;20047;-79
2023/03/13 13:56:39;;;;;;;0.00;0.00;;;;;;;17.65;100.00;99117.91;10570945;27;19924;-80
2023/03/13 14:01:42;;;;;;;0.00;0.00;;;;;;;17.80;100.00;99107.88;10534203;28;20074;-79
2023/03/13 14:06:49;;;;;;;0.00;0.00;;;;;;;17.66;100.00;99122.22;10544488;28;20400;-80
2023/03/13 14:11:51;;;;;;;0.00;0.00;;;;;;;17.29;100.00;99112.94;10568043;28;20044;-81
2023/03/13 14:16:58;;;;;;;0.08;0.03;;;;;;;17.18;100.00;99099.38;10513946;28;20043;-80
2023/03/13 14:22:06;;;;;;;0.00;0.00;;;;;;;17.71;100.00;99078.63;10538250;28;20050;-80
2023/03/13 14:27:16;;;;;;;0.10;0.10;;;;;;;17.61;100.00;99082.44;10545970;28;20069;-81
2023/03/13 14:32:17;;;;;;;11.80;0.22;;;;;;;17.70;100.00;99081.28;10532721;28;20302;-80
2023/03/13 14:37:42;;;;;;;1.35;0.75;;;;;;;17.40;100.00;99090.03;10530349;28;20077;-81
2023/03/13 14:42:50;;;;;;;11.25;0.47;;;;;;;17.64;100.00;99097.13;10526832;28;20187;-80
2023/03/13 14:47:53;;;;;;;0.20;0.20;;;;;;;17.85;100.00;99080.78;10529879;28;20094;-80
2023/03/13 14:53:04;;;;;;;0.20;0.20;;;;;;;17.02;100.00;99053.03;10525445;28;20044;-81
2023/03/13 14:58:26;;;;;;;0.00;0.00;;;;;;;17.13;100.00;99031.88;10530658;28;20071;-81
2023/03/13 15:03:30;;;;;;;0.10;0.05;;;;;;;17.03;100.00;99039.13;10534369;28;20036;-80
2023/03/13 15:08:36;;;;;;;0.00;0.00;;;;;;;16.92;100.00;99028.16;10529883;28;20056;-81
2023/03/13 15:13:37;;;;;;;0.00;0.00;;;;;;;17.24;100.00;99052.34;10516241;28;20048;-80
2023/03/13 15:18:39;;;;;;;0.00;0.00;;;;;;;17.18;100.00;99043.00;10537709;28;20055;-81
2023/03/13 15:23:46;;;;;;;0.82;0.32;;;;;;;17.26;100.00;99034.94;10558061;28;20471;-81
2023/03/13 15:28:47;;;;;;;0.05;0.00;;;;;;;17.28;100.00;99033.16;10537645;28;20077;-80
2023/03/13 15:33:54;;;;;;;0.00;0.00;;;;;;;17.19;100.00;99023.03;10529736;28;20048;-81
2023/03/13 15:38:56;;;;;;;2.90;0.25;;;;;;;17.48;100.00;99039.47;10539564;28;20066;-81
2023/03/13 15:43:57;;;;;;;0.10;0.10;;;;;;;17.62;100.00;99037.25;10532900;28;20040;-80
2023/03/13 15:48:59;;;;;;;0.05;0.05;;;;;;;17.62;100.00;99026.84;10531678;28;20104;-80
2023/03/13 15:54:01;;;;;;;0.03;0.03;;;;;;;16.97;100.00;99010.69;10538281;28;20055;-82
2023/03/13 15:59:10;;;;;;;0.05;0.00;;;;;;;16.68;100.00;98995.97;10523931;28;20044;-81
2023/03/13 16:04:12;;;;;;;;;;;;;;;16.66;100.00;98998.59;10547777;28;20067;-80
2023/03/13 16:09:16;;;;;;;0.45;0.45;;;;;;;16.31;100.00;98974.47;10530346;28;19994;-81
2023/03/13 16:14:17;;;;;;;0.60;0.30;;;;;;;16.37;100.00;98970.88;10525490;28;20036;-81
2023/03/13 16:19:19;;;;;;;0.10;0.10;;;;;;;16.66;100.00;98957.00;10569956;27;20121;-81
2023/03/13 16:24:21;;;;;;;0.00;0.00;;;;;;;16.35;100.00;98937.09;10524393;28;20093;-81
2023/03/13 16:29:22;;;;;;;0.08;0.08;;;;;;;16.28;100.00;98925.19;10537199;28;20553;-80
2023/03/13 16:34:24;;;;;;;0.00;0.00;;;;;;;16.17;100.00;98913.38;10516971;28;20040;-81
2023/03/13 16:39:26;;;;;;;0.00;0.00;;;;;;;16.06;100.00;98910.22;10528157;28;20064;-81
2023/03/13 16:44:28;;;;;;;0.30;0.10;;;;;;;15.95;100.00;98917.47;10554095;28;20048;-80
2023/03/13 16:49:29;;;;;;;0.77;0.10;;;;;;;15.77;100.00;98918.81;10521795;28;20051;-80
2023/03/13 16:54:31;;;;;;;0.00;0.00;;;;;;;15.57;100.00;98902.00;10541464;28;20482;-80
2023/03/13 16:59:33;;;;;;;0.03;0.00;;;;;;;15.32;100.00;98892.31;10527179;28;20052;-81
2023/03/13 17:04:34;;;;;;;0.00;0.00;;;;;;;15.26;100.00;98894.19;10542736;28;20581;-81
2023/03/13 17:09:36;;;;;;;0.20;0.10;;;;;;;15.15;100.00;98890.09;10530078;28;20075;-81
2023/03/13 17:14:38;;;;;;;0.03;0.03;;;;;;;15.13;100.00;98899.69;10521797;28;20116;-81
2023/03/13 17:19:40;;;;;;;0.20;0.10;;;;;;;14.82;100.00;98913.41;10532009;28;20056;-82
2023/03/13 17:24:42;;;;;;;0.45;0.32;;;;;;;14.78;100.00;98905.72;10520133;28;20037;-83
2023/03/13 17:29:44;;;;;;;12.48;0.40;;;;;;;14.78;100.00;98903.13;10531287;28;20070;-82
2023/03/13 17:34:45;;;;;;;0.00;0.00;;;;;;;14.46;100.00;98900.38;10523269;28;20058;-80
2023/03/13 17:39:50;;;;;;;0.03;0.00;;;;;;;14.43;100.00;98895.22;10537141;28;20093;-81
2023/03/13 17:44:51;;;;;;;0.22;0.17;;;;;;;14.18;100.00;98895.78;10537780;28;20112;-81
2023/03/13 17:49:53;;;;;;;0.10;0.10;;;;;;;14.21;100.00;98887.09;10540758;28;20032;-82
2023/03/13 17:54:55;;;;;;;0.00;0.00;;;;;;;14.44;100.00;98886.59;10557619;28;20035;-81
2023/03/13 17:59:56;;;;;;;1.98;0.32;;;;;;;14.22;100.00;98887.06;10534150;28;20051;-82
2023/03/13 18:04:58;;;;;;;0.40;0.13;;;;;;;14.10;100.00;98882.97;10526822;28;20032;-82
2023/03/13 18:10:00;;;;;;;0.25;0.15;;;;;;;14.25;100.00;98887.00;10528545;28;20071;-82
2023/03/13 18:15:01;;;;;;;0.90;0.30;;;;;;;13.94;100.00;98876.41;10504518;28;20048;-82
2023/03/13 18:20:08;;;;;;;0.00;0.00;;;;;;;13.93;100.00;98862.63;10552495;28;20109;-83
2023/03/13 18:25:10;;;;;;;0.10;0.10;;;;;;;14.66;100.00;98880.94;10552427;28;20044;-82
2023/03/13 18:30:21;;;;;;;0.28;0.00;;;;;;;14.68;100.00;98884.34;10542519;28;20044;-83
2023/03/13 18:35:22;;;;;;;1.08;0.63;;;;;;;14.52;100.00;98874.31;10552212;28;20044;-82
2023/03/13 18:40:27;;;;;;;0.00;0.00;;;;;;;14.32;100.00;98860.97;10543433;28;20407;-82
2023/03/13 18:45:28;;;;;;;0.00;0.00;;;;;;;14.42;100.00;98862.44;10528300;28;20075;-83
2023/03/13 18:50:31;;;;;;;0.22;0.10;;;;;;;14.10;100.00;98851.91;10532260;28;20051;-84
2023/03/13 18:55:32;;;;;;;0.20;0.08;;;;;;;13.53;100.00;98819.44;10556856;27;20046;-81
2023/03/13 19:00:34;;;;;;;0.00;0.00;;;;;;;12.76;100.00;98797.53;10521730;28;20093;-82
2023/03/13 19:05:36;;;;;;;1.25;0.30;;;;;;;12.36;100.00;98781.81;10535291;28;20142;-82
2023/03/13 19:10:37;;;;;;;1.90;0.35;;;;;;;12.57;100.00;98779.75;10551781;28;20410;-82
2023/03/13 19:15:39;;;;;;;0.10;0.00;;;;;;;13.12;100.00;98792.59;10541259;28;20044;-81
2023/03/13 19:20:41;;;;;;;0.17;0.08;;;;;;;13.03;100.00;98775.50;10556751;28;20055;-82
2023/03/13 19:25:43;;;;;;;0.00;0.00;;;;;;;13.01;100.00;98754.88;10536110;28;20570;-82
2023/03/13 19:30:46;;;;;;;0.43;0.15;;;;;;;12.52;100.00;98724.75;10538868;28;20048;-83
2023/03/13 19:35:47;;;;;;;2.53;0.45;;;;;;;12.06;100.00;98670.41;10541651;28;20043;-82
2023/03/13 19:40:50;;;;;;;0.00;0.00;;;;;;;12.30;100.00;98634.75;10538123;28;20056;-82
2023/03/13 19:45:51;;;;;;;2.20;0.38;;;;;;;12.31;100.00;98631.28;10529386;28;20123;-82
2023/03/13 19:50:53;;;;;;;2.20;0.65;;;;;;;12.23;100.00;98648.63;10549866;28;20043;-82
2023/03/13 19:55:55;;;;;;;0.75;0.15;;;;;;;12.20;100.00;98644.38;10559988;28;20486;-82
2023/03/13 20:00:56;;;;;;;0.00;0.00;;;;;;;11.80;100.00;98631.25;10550576;28;20093;-80
2023/03/13 20:06:20;;;;;;;0.00;0.00;;;;;;;11.35;100.00;98614.72;10547471;28;20040;-79
2023/03/13 20:11:22;;;;;;;0.95;0.25;;;;;;;11.28;100.00;98610.50;10549526;28;20046;-79
2023/03/13 20:16:26;;;;;;;0.45;0.30;;;;;;;11.32;100.00;98609.56;10537839;28;20499;-79
2023/03/13 20:21:31;;;;;;;0.20;0.20;;;;;;;11.38;100.00;98604.34;10529362;28;20483;-80
2023/03/13 20:26:32;;;;;;;0.35;0.22;;;;;;;11.78;100.00;98617.50;10521611;28;20040;-80
2023/03/13 20:31:34;;;;;;;0.10;0.10;;;;;;;11.68;100.00;98624.53;10539434;28;20047;-79
2023/03/13 20:36:38;;;;;;;0.00;0.00;;;;;;;11.15;100.00;98619.25;10526914;28;20138;-79
2023/03/13 20:41:39;;;;;;;2.55;0.65;;;;;;;11.47;100.00;98630.84;10525930;28;20068;-79
2023/03/13 20:46:41;;;;;;;0.10;0.10;;;;;;;11.29;100.00;98625.06;10511689;28;20128;-80
2023/03/13 20:51:43;;;;;;;0.00;0.00;;;;;;;11.12;100.00;98615.00;10503746;28;20097;-80
2023/03/13 20:56:45;;;;;;;0.10;0.10;;;;;;;10.40;100.00;98589.22;10541906;28;20428;-79
2023/03/13 21:01:46;;;;;;;1.02;0.57;;;;;;;10.32;100.00;98570.41;10547461;28;20123;-81
2023/03/13 21:06:49;;;;;;;0.13;0.08;;;;;;;9.95;100.00;98575.91;10509943;28;20040;-81
2023/03/13 21:11:51;;;;;;;0.00;0.00;;;;;;;10.21;100.00;98562.78;10542545;28;20051;-81
2023/03/13 21:16:53;;;;;;;0.15;0.13;;;;;;;10.03;100.00;98584.41;10522715;28;20044;-81
2023/03/13 21:21:54;;;;;;;0.20;0.20;;;;;;;10.16;100.00;98557.69;10531765;28;20051;-82
2023/03/13 21:26:56;;;;;;;0.20;0.20;;;;;;;10.33;100.00;98579.81;10518969;28;20078;-83
2023/03/13 21:32:00;;;;;;;1.13;0.43;;;;;;;11.00;100.00;98571.38;10529023;28;20044;-82
2023/03/13 21:37:01;;;;;;;0.70;0.40;;;;;;;11.10;100.00;98594.41;10530331;28;20537;-81
2023/03/13 21:42:03;;;;;;;0.40;0.17;;;;;;;10.99;100.00;98608.31;10540444;28;20445;-83
2023/03/13 21:47:05;;;;;;;0.20;0.10;;;;;;;10.77;100.00;98606.84;10550713;28;20437;-82
2023/03/13 21:52:07;;;;;;;0.25;0.20;;;;;;;11.33;100.00;98580.34;10536624;28;20051;-82
2023/03/13 21:57:09;;;;;;;1.27;0.28;;;;;;;11.68;100.00;98549.75;10508352;28;20384;-82
2023/03/13 22:02:11;;;;;;;0.20;0.05;;;;;;;11.72;100.00;98546.22;10536193;28;20044;-82
2023/03/13 22:07:13;;;;;;;0.00;0.00;;;;;;;11.81;100.00;98506.50;10520175;28;20064;-82
2023/03/13 22:12:16;;;;;;;0.08;0.08;;;;;;;11.58;100.00;98487.13;10516957;28;20079;-82
2023/03/13 22:17:19;;;;;;;3.33;0.70;;;;;;;11.64;100.00;98471.56;10526075;28;20051;-82
2023/03/13 22:22:20;;;;;;;0.30;0.30;;;;;;;11.69;100.00;98474.91;10526029;28;20465;-81
2023/03/13 22:27:23;;;;;;;0.10;0.10;;;;;;;11.97;100.00;98468.44;10514949;28;20044;-82
2023/03/13 22:32:25;;;;;;;1.45;0.38;;;;;;;11.98;100.00;98463.22;10535258;28;20404;-82
2023/03/13 22:37:26;;;;;;;4.95;0.57;;;;;;;11.85;100.00;98454.84;10523429;28;20480;-82
2023/03/13 22:42:28;;;;;;;0.00;0.00;;;;;;;11.96;100.00;98446.88;10523800;28;20052;-82
2023/03/13 22:47:31;;;;;;;0.10;0.10;;;;;;;11.63;100.00;98438.91;10514783;28;20044;-79
2023/03/13 22:52:32;;;;;;;0.00;0.00;;;;;;;11.63;100.00;98428.59;10550448;28;20055;-79
2023/03/13 22:57:47;;;;;;;0.28;0.28;;;;;;;11.54;100.00;98400.41;10534937;28;20105;-79
2023/03/13 23:02:49;;;;;;;0.22;0.20;;;;;;;11.30;100.00;98384.47;10512177;28;20048;-79
2023/03/13 23:07:50;;;;;;;0.10;0.10;;;;;;;11.32;100.00;98395.63;10507769;28;20055;-79
2023/03/13 23:12:52;;;;;;;0.00;0.00;;;;;;;11.21;100.00;98387.22;10542280;28;20085;-79
2023/03/13 23:17:54;;;;;;;0.40;0.30;;;;;;;11.30;100.00;98374.16;10532601;28;20069;-80
2023/03/13 23:22:55;;;;;;;1.52;0.50;;;;;;;11.41;100.00;98371.41;10522567;28;20089;-79
2023/03/13 23:27:57;;;;;;;0.35;0.35;;;;;;;11.44;100.00;98371.34;10527921;28;20097;-80
2023/03/13 23:32:59;;;;;;;0.28;0.28;;;;;;;11.44;100.00;98358.47;10538895;28;20048;-80